createdAt,value
2023-04-26T00:00:06.457Z,101018.94
2023-04-26T00:02:36.048Z,101024.22
2023-04-26T00:05:05.248Z,101026.97
2023-04-26T00:07:35.484Z,101024.34
2023-04-26T00:10:03.552Z,101032.41
2023-04-26T00:12:31.649Z,101028.06
2023-04-26T00:14:59.734Z,101024.63
2023-04-26T00:17:27.780Z,101031.75
2023-04-26T00:19:57.627Z,101033.56
2023-04-26T00:22:26.119Z,101039.06
2023-04-26T00:24:55.571Z,101034.78
2023-04-26T00:27:23.630Z,101038.41
2023-04-26T00:29:51.696Z,101042.06
2023-04-26T00:32:19.770Z,101036.78
2023-04-26T00:34:47.852Z,101041.38
2023-04-26T00:37:16.638Z,101044.09
2023-04-26T00:39:44.733Z,101035.28
2023-04-26T00:42:14.175Z,101031.75
2023-04-26T00:44:42.230Z,101035.41
2023-04-26T00:47:10.446Z,101035.47
2023-04-26T00:49:38.561Z,101033.72
2023-04-26T00:52:07.029Z,101034.59
2023-04-26T00:54:35.143Z,101030.13
2023-04-26T00:57:03.595Z,101032.78
2023-04-26T00:59:34.641Z,101034.53
2023-04-26T01:02:03.873Z,101044.41
2023-04-26T01:04:32.160Z,101043.59
2023-04-26T01:07:01.501Z,101045.38
2023-04-26T01:09:29.653Z,101052.66
2023-04-26T01:11:58.575Z,101050.16
2023-04-26T01:14:27.045Z,101047.59
2023-04-26T01:16:57.780Z,101047.66
2023-04-26T01:19:25.886Z,101049.41
2023-04-26T01:21:53.982Z,101051.16
2023-04-26T01:24:23.413Z,101053.81
2023-04-26T01:26:51.611Z,101050.22
2023-04-26T01:29:21.197Z,101052.78
2023-04-26T01:31:49.926Z,101059.00
2023-04-26T01:34:18.280Z,101051.91
2023-04-26T01:36:46.347Z,101053.66
2023-04-26T01:39:14.415Z,101057.19
2023-04-26T01:41:43.881Z,101057.19
2023-04-26T01:44:11.951Z,101053.66
2023-04-26T01:46:40.160Z,101063.41
2023-04-26T01:49:08.344Z,101059.84
2023-04-26T01:51:36.451Z,101063.47
2023-04-26T01:54:04.633Z,101053.75
2023-04-26T01:56:32.683Z,101065.38
2023-04-26T01:59:02.097Z,101057.41
2023-04-26T02:01:30.212Z,101057.53
2023-04-26T02:03:58.276Z,101061.00
2023-04-26T02:06:26.477Z,101060.22
2023-04-26T02:08:55.179Z,101057.66
2023-04-26T02:11:23.482Z,101064.03
2023-04-26T02:13:51.636Z,101067.72
2023-04-26T02:16:21.390Z,101063.44
2023-04-26T02:18:50.795Z,101067.09
2023-04-26T02:21:19.308Z,101066.34
2023-04-26T02:23:47.355Z,101073.50
2023-04-26T02:26:15.700Z,101076.13
2023-04-26T02:28:43.756Z,101060.13
2023-04-26T02:31:12.253Z,101076.03
2023-04-26T02:33:41.761Z,101073.25
2023-04-26T02:36:10.121Z,101067.88
2023-04-26T02:38:38.263Z,101073.09
2023-04-26T02:41:06.592Z,101070.41
2023-04-26T02:43:34.768Z,101073.00
2023-04-26T02:46:02.954Z,101078.41
2023-04-26T02:48:31.023Z,101079.28
2023-04-26T02:51:00.493Z,101080.22
2023-04-26T02:53:28.566Z,101077.53
2023-04-26T02:55:56.807Z,101079.31
2023-04-26T02:58:24.889Z,101074.03
2023-04-26T03:00:54.716Z,101077.56
2023-04-26T03:03:23.219Z,101077.56
2023-04-26T03:05:51.634Z,101075.75
2023-04-26T03:08:21.142Z,101082.03
2023-04-26T03:10:49.237Z,101075.88
2023-04-26T03:13:17.361Z,101076.78
2023-04-26T03:15:47.050Z,101074.19
2023-04-26T03:18:15.123Z,101078.69
2023-04-26T03:20:43.584Z,101076.91
2023-04-26T03:23:11.611Z,101073.38
2023-04-26T03:25:41.018Z,101075.16
2023-04-26T03:28:09.108Z,101070.81
2023-04-26T03:30:37.262Z,101078.88
2023-04-26T03:33:05.369Z,101068.31
2023-04-26T03:35:33.483Z,101073.81
2023-04-26T03:38:01.542Z,101060.59
2023-04-26T03:40:29.752Z,101066.97
2023-04-26T03:42:59.196Z,101072.50
2023-04-26T03:45:27.797Z,101069.91
2023-04-26T03:47:59.040Z,101075.28
2023-04-26T03:50:27.280Z,101074.47
2023-04-26T03:52:55.343Z,101081.59
2023-04-26T03:55:23.431Z,101086.88
2023-04-26T03:57:51.454Z,101083.28
2023-04-26T04:00:21.400Z,101078.84
2023-04-26T04:02:49.652Z,101085.75
2023-04-26T04:05:18.033Z,101087.28
2023-04-26T04:07:46.318Z,101074.56
2023-04-26T04:10:14.388Z,101086.81
2023-04-26T04:12:42.438Z,101081.25
2023-04-26T04:15:11.563Z,101075.75
2023-04-26T04:17:41.057Z,101083.53
2023-04-26T04:20:10.301Z,101091.25
2023-04-26T04:22:39.651Z,101085.69
2023-04-26T04:25:09.344Z,101087.34
2023-04-26T04:27:38.194Z,101082.78
2023-04-26T04:30:08.972Z,101087.94
2023-04-26T04:32:38.100Z,101085.22
2023-04-26T04:35:08.557Z,101086.97
2023-04-26T04:37:36.633Z,101081.69
2023-04-26T04:40:05.527Z,101086.19
2023-04-26T04:42:34.986Z,101091.66
2023-04-26T04:45:03.372Z,101089.03
2023-04-26T04:47:31.501Z,101093.44
2023-04-26T04:50:00.270Z,101095.25
2023-04-26T04:52:29.728Z,101093.41
2023-04-26T04:54:57.819Z,101095.09
2023-04-26T04:57:25.920Z,101097.63
2023-04-26T04:59:54.209Z,101103.66
2023-04-26T05:02:22.445Z,101098.94
2023-04-26T05:04:50.879Z,101100.53
2023-04-26T05:07:19.106Z,101103.88
2023-04-26T05:09:48.517Z,101107.13
2023-04-26T05:12:16.620Z,101106.81
2023-04-26T05:14:44.693Z,101109.97
2023-04-26T05:17:13.372Z,101106.03
2023-04-26T05:19:41.478Z,101108.22
2023-04-26T05:22:09.537Z,101108.69
2023-04-26T05:24:37.592Z,101110.13
2023-04-26T05:27:07.021Z,101107.97
2023-04-26T05:29:35.145Z,101107.56
2023-04-26T05:32:03.932Z,101116.16
2023-04-26T05:34:32.096Z,101103.41
2023-04-26T05:37:00.161Z,101110.34
2023-04-26T05:39:28.263Z,101118.69
2023-04-26T05:41:56.385Z,101123.16
2023-04-26T05:44:25.795Z,101113.22
2023-04-26T05:46:54.001Z,101119.44
2023-04-26T05:49:22.190Z,101116.78
2023-04-26T05:51:50.344Z,101119.28
2023-04-26T05:54:18.392Z,101117.41
2023-04-26T05:56:46.758Z,101115.47
2023-04-26T05:59:14.803Z,101117.19
2023-04-26T06:01:44.219Z,101111.69
2023-04-26T06:04:12.591Z,101114.25
2023-04-26T06:06:40.914Z,101116.03
2023-04-26T06:09:09.839Z,101109.03
2023-04-26T06:11:37.938Z,101117.09
2023-04-26T06:14:06.764Z,101106.59
2023-04-26T06:16:34.927Z,101109.59
2023-04-26T06:19:04.413Z,101112.34
2023-04-26T06:21:32.968Z,101118.13
2023-04-26T06:24:00.983Z,101118.91
2023-04-26T06:26:29.054Z,101119.28
2023-04-26T06:28:57.084Z,101121.22
2023-04-26T06:31:25.190Z,101116.22
2023-04-26T06:33:53.552Z,101119.19
2023-04-26T06:36:23.356Z,101111.38
2023-04-26T06:38:51.835Z,101111.81
2023-04-26T06:41:19.899Z,101111.31
2023-04-26T06:43:47.963Z,101122.63
2023-04-26T06:46:16.081Z,101125.88
2023-04-26T06:48:44.174Z,101124.22
2023-04-26T06:51:12.460Z,101122.81
2023-04-26T06:53:42.336Z,101127.09
2023-04-26T06:56:10.399Z,101127.31
2023-04-26T06:58:38.469Z,101119.22
2023-04-26T07:01:08.624Z,101127.31
2023-04-26T07:03:36.855Z,101126.63
2023-04-26T07:06:06.266Z,101121.22
2023-04-26T07:08:34.525Z,101141.59
2023-04-26T07:11:10.343Z,101136.59
2023-04-26T07:13:41.131Z,101132.59
2023-04-26T07:16:09.200Z,101131.09
2023-04-26T07:18:37.284Z,101136.41
2023-04-26T07:21:05.336Z,101143.25
2023-04-26T07:23:33.503Z,101132.31
2023-04-26T07:26:04.395Z,101145.09
2023-04-26T07:28:32.592Z,101136.88
2023-04-26T07:31:02.358Z,101135.78
2023-04-26T07:33:30.676Z,101129.53
2023-04-26T07:36:01.433Z,101142.97
2023-04-26T07:38:29.651Z,101136.34
2023-04-26T07:40:58.286Z,101137.03
2023-04-26T07:43:27.924Z,101136.63
2023-04-26T07:45:56.035Z,101133.66
2023-04-26T07:48:24.196Z,101135.91
2023-04-26T07:50:52.259Z,101132.16
2023-04-26T07:53:20.731Z,101133.59
2023-04-26T07:55:48.910Z,101133.19
2023-04-26T07:58:17.044Z,101144.53
2023-04-26T08:00:46.545Z,101140.09
2023-04-26T08:03:16.638Z,101144.66
2023-04-26T08:05:47.960Z,101156.47
2023-04-26T08:08:18.842Z,101160.81
2023-04-26T08:10:47.169Z,101166.56
2023-04-26T08:13:15.895Z,101159.59
2023-04-26T08:15:44.030Z,101161.69
2023-04-26T08:18:13.492Z,101161.84
2023-04-26T08:20:42.437Z,101162.66
2023-04-26T08:23:10.581Z,101155.41
2023-04-26T08:25:38.668Z,101163.78
2023-04-26T08:28:08.081Z,101162.47
2023-04-26T08:30:36.317Z,101172.97
2023-04-26T08:33:04.631Z,101165.94
2023-04-26T08:35:34.065Z,101164.97
2023-04-26T08:38:02.148Z,101162.84
2023-04-26T08:40:30.229Z,101166.91
2023-04-26T08:42:58.332Z,101157.13
2023-04-26T08:45:26.479Z,101160.59
2023-04-26T08:47:56.876Z,101154.31
2023-04-26T08:50:25.413Z,101164.25
2023-04-26T08:52:54.902Z,101166.69
2023-04-26T08:55:23.445Z,101167.16
2023-04-26T08:57:51.989Z,101170.56
2023-04-26T09:00:21.440Z,101171.78
2023-04-26T09:02:52.573Z,101172.63
2023-04-26T09:05:23.701Z,101184.63
2023-04-26T09:07:54.445Z,101188.22
2023-04-26T09:10:24.009Z,101193.72
2023-04-26T09:12:53.357Z,101193.53
2023-04-26T09:15:22.708Z,101180.41
2023-04-26T09:17:51.798Z,101180.50
2023-04-26T09:20:23.176Z,101194.19
2023-04-26T09:22:52.337Z,101181.44
2023-04-26T09:25:27.768Z,101173.47
2023-04-26T09:27:57.296Z,101170.94
2023-04-26T09:30:26.035Z,101177.25
2023-04-26T09:32:56.568Z,101171.69
2023-04-26T09:35:27.246Z,101172.69
2023-04-26T09:38:00.456Z,101175.09
2023-04-26T09:40:34.448Z,101165.97
2023-04-26T09:43:05.228Z,101179.19
2023-04-26T09:45:35.135Z,101178.66
2023-04-26T09:48:22.286Z,101188.97
2023-04-26T09:50:52.552Z,101195.81
2023-04-26T09:53:28.768Z,101210.28
2023-04-26T09:55:57.644Z,101228.25
2023-04-26T09:58:27.140Z,101216.09
2023-04-26T10:00:55.755Z,101227.34
2023-04-26T10:03:24.162Z,101234.44
2023-04-26T10:05:52.791Z,101233.53
2023-04-26T10:08:20.878Z,101233.13
2023-04-26T10:10:49.062Z,101229.44
2023-04-26T10:13:17.599Z,101229.34
2023-04-26T10:15:48.861Z,101226.31
2023-04-26T10:18:17.265Z,101226.63
2023-04-26T10:20:49.441Z,101228.88
2023-04-26T10:23:21.240Z,101218.06
2023-04-26T10:25:49.555Z,101207.22
2023-04-26T10:28:18.789Z,101208.69
2023-04-26T10:30:57.955Z,101207.03
2023-04-26T10:33:27.237Z,101199.31
2023-04-26T10:36:03.887Z,101194.41
2023-04-26T10:38:32.005Z,101191.22
2023-04-26T10:41:33.754Z,101190.00
2023-04-26T10:44:39.971Z,101194.28
2023-04-26T10:47:21.970Z,101201.84
2023-04-26T10:49:50.053Z,101195.56
2023-04-26T10:52:21.375Z,101192.50
2023-04-26T10:54:51.590Z,101202.41
2023-04-26T10:57:20.133Z,101194.81
2023-04-26T11:00:21.127Z,101198.28
2023-04-26T11:02:58.349Z,101190.25
2023-04-26T11:05:56.580Z,101188.28
2023-04-26T11:08:30.089Z,101194.19
2023-04-26T11:11:11.097Z,101195.50
2023-04-26T11:13:40.629Z,101200.59
2023-04-26T11:16:09.580Z,101223.41
2023-04-26T11:18:40.224Z,101245.75
2023-04-26T11:21:08.475Z,101243.16
2023-04-26T11:23:36.824Z,101254.94
2023-04-26T11:26:05.699Z,101240.34
2023-04-26T11:28:37.201Z,101235.41
2023-04-26T11:31:06.404Z,101237.16
2023-04-26T11:33:35.659Z,101235.44
2023-04-26T11:36:05.556Z,101230.03
2023-04-26T11:38:33.663Z,101237.63
2023-04-26T11:41:03.071Z,101232.63
2023-04-26T11:43:35.609Z,101231.31
2023-04-26T11:46:04.604Z,101224.81
2023-04-26T11:48:33.768Z,101226.53
2023-04-26T11:51:03.804Z,101213.91
2023-04-26T11:53:40.734Z,101220.00
2023-04-26T11:56:16.871Z,101225.25
2023-04-26T11:58:48.959Z,101224.78
2023-04-26T12:01:22.198Z,101238.63
2023-04-26T12:03:52.223Z,101244.38
2023-04-26T12:06:21.150Z,101242.53
2023-04-26T12:08:53.982Z,101240.81
2023-04-26T12:11:22.188Z,101241.59
2023-04-26T12:13:50.345Z,101240.94
2023-04-26T12:16:26.445Z,101248.09
2023-04-26T12:18:56.769Z,101251.94
2023-04-26T12:21:27.532Z,101247.28
2023-04-26T12:23:59.344Z,101245.16
2023-04-26T12:26:43.595Z,101240.16
2023-04-26T12:29:11.714Z,101255.44
2023-04-26T12:31:39.999Z,101245.31
2023-04-26T12:34:08.853Z,101256.22
2023-04-26T12:36:36.908Z,101280.44
2023-04-26T12:39:06.920Z,101287.38
2023-04-26T12:41:35.047Z,101307.94
2023-04-26T12:44:03.191Z,101305.81
2023-04-26T12:46:31.388Z,101290.97
2023-04-26T12:48:59.544Z,101290.59
2023-04-26T12:51:27.706Z,101285.75
2023-04-26T12:53:55.855Z,101286.59
2023-04-26T12:56:25.712Z,101299.19
2023-04-26T12:58:53.817Z,101285.03
2023-04-26T13:01:21.956Z,101278.72
2023-04-26T13:03:50.267Z,101280.22
2023-04-26T13:06:18.588Z,101270.25
2023-04-26T13:08:46.696Z,101270.41
2023-04-26T13:11:14.772Z,101270.63
2023-04-26T13:13:45.025Z,101267.31
2023-04-26T13:16:13.575Z,101264.38
2023-04-26T13:18:42.232Z,101263.59
2023-04-26T13:21:10.282Z,101263.03
2023-04-26T13:23:38.373Z,101256.28
2023-04-26T13:26:06.648Z,101262.41
2023-04-26T13:28:36.157Z,101252.91
2023-04-26T13:31:06.483Z,101258.13
2023-04-26T13:33:34.768Z,101259.13
2023-04-26T13:36:02.893Z,101244.72
2023-04-26T13:38:32.850Z,101255.66
2023-04-26T13:41:01.334Z,101262.44
2023-04-26T13:43:30.706Z,101273.50
2023-04-26T13:45:58.816Z,101265.69
2023-04-26T13:48:28.473Z,101273.09
2023-04-26T13:50:56.740Z,101282.13
2023-04-26T13:53:25.010Z,101278.75
2023-04-26T13:55:53.371Z,101289.47
2023-04-26T13:58:21.784Z,101287.97
2023-04-26T14:00:49.868Z,101277.91
2023-04-26T14:03:18.313Z,101290.75
2023-04-26T14:05:47.821Z,101279.06
2023-04-26T14:08:16.128Z,101286.09
2023-04-26T14:10:44.396Z,101288.06
2023-04-26T14:13:12.467Z,101287.28
2023-04-26T14:15:40.523Z,101287.13
2023-04-26T14:18:09.225Z,101278.59
2023-04-26T14:20:37.316Z,101283.31
2023-04-26T14:23:06.763Z,101284.34
2023-04-26T14:25:35.329Z,101288.69
2023-04-26T14:28:04.168Z,101292.28
2023-04-26T14:30:32.649Z,101281.31
2023-04-26T14:33:00.948Z,101281.88
2023-04-26T14:35:29.058Z,101288.91
2023-04-26T14:37:57.129Z,101308.06
2023-04-26T14:40:26.543Z,101283.16
2023-04-26T14:42:54.613Z,101297.44
2023-04-26T14:45:30.405Z,101284.47
2023-04-26T14:48:02.315Z,101286.63
2023-04-26T14:50:30.464Z,101283.16
2023-04-26T14:52:58.539Z,101303.81
2023-04-26T14:55:28.315Z,101295.84
2023-04-26T14:57:56.382Z,101312.47
2023-04-26T15:00:25.532Z,101317.63
2023-04-26T15:02:53.783Z,101319.56
2023-04-26T15:05:24.144Z,101316.09
2023-04-26T15:07:52.326Z,101317.44
2023-04-26T15:10:20.736Z,101315.59
2023-04-26T15:12:50.307Z,101312.72
2023-04-26T15:15:18.610Z,101308.81
2023-04-26T15:17:46.895Z,101317.53
2023-04-26T15:20:15.943Z,101317.44
2023-04-26T15:22:44.101Z,101314.84
2023-04-26T15:25:12.743Z,101323.31
2023-04-26T15:27:41.136Z,101321.38
2023-04-26T15:30:11.473Z,101314.84
2023-04-26T15:32:39.637Z,101313.69
2023-04-26T15:35:08.467Z,101323.03
2023-04-26T15:37:38.269Z,101318.59
2023-04-26T15:40:10.389Z,101321.88
2023-04-26T15:42:38.953Z,101318.94
2023-04-26T15:45:08.227Z,101323.41
2023-04-26T15:47:38.135Z,101313.72
2023-04-26T15:50:09.757Z,101319.97
2023-04-26T15:52:40.325Z,101324.25
2023-04-26T15:55:08.562Z,101325.44
2023-04-26T15:57:37.557Z,101326.03
2023-04-26T16:00:08.434Z,101326.91
2023-04-26T16:02:38.104Z,101334.91
2023-04-26T16:05:08.248Z,101325.72
2023-04-26T16:07:38.696Z,101329.44
2023-04-26T16:10:08.318Z,101338.97
2023-04-26T16:12:39.332Z,101333.16
2023-04-26T16:15:09.391Z,101335.97
2023-04-26T16:17:39.243Z,101337.47
2023-04-26T16:20:09.072Z,101340.81
2023-04-26T16:22:37.619Z,101340.66
2023-04-26T16:25:06.984Z,101344.84
2023-04-26T16:27:35.360Z,101342.22
2023-04-26T16:30:03.897Z,101339.75
2023-04-26T16:32:32.308Z,101346.41
2023-04-26T16:35:01.799Z,101340.38
2023-04-26T16:37:29.852Z,101341.75
2023-04-26T16:39:57.906Z,101352.84
2023-04-26T16:42:26.365Z,101339.66
2023-04-26T16:44:56.016Z,101338.28
2023-04-26T16:47:24.169Z,101350.94
2023-04-26T16:49:52.487Z,101345.56
2023-04-26T16:52:21.987Z,101354.59
2023-04-26T16:54:50.192Z,101356.75
2023-04-26T16:57:18.904Z,101350.84
2023-04-26T16:59:47.432Z,101357.03
2023-04-26T17:02:15.750Z,101353.78
2023-04-26T17:04:44.422Z,101362.16
2023-04-26T17:07:12.924Z,101354.97
2023-04-26T17:09:42.387Z,101359.31
2023-04-26T17:12:10.458Z,101351.31
2023-04-26T17:14:38.530Z,101367.47
2023-04-26T17:17:06.674Z,101366.75
2023-04-26T17:19:34.819Z,101362.31
2023-04-26T17:22:02.937Z,101367.78
2023-04-26T17:24:31.196Z,101365.78
2023-04-26T17:27:00.656Z,101371.84
2023-04-26T17:29:28.729Z,101367.16
2023-04-26T17:31:56.805Z,101382.97
2023-04-26T17:34:25.022Z,101377.28
2023-04-26T17:36:53.511Z,101380.19
2023-04-26T17:39:21.588Z,101389.97
2023-04-26T17:41:51.254Z,101386.41
2023-04-26T17:44:20.722Z,101392.97
2023-04-26T17:46:49.108Z,101394.09
2023-04-26T17:49:17.273Z,101387.13
2023-04-26T17:51:45.394Z,101388.06
2023-04-26T17:54:14.099Z,101390.84
2023-04-26T17:56:43.464Z,101391.91
2023-04-26T17:59:11.797Z,101388.84
2023-04-26T18:01:41.313Z,101391.81
2023-04-26T18:04:09.559Z,101392.88
2023-04-26T18:06:37.956Z,101391.00
2023-04-26T18:09:06.134Z,101391.88
2023-04-26T18:11:34.254Z,101393.84
2023-04-26T18:14:02.340Z,101400.41
2023-04-26T18:16:30.412Z,101400.75
2023-04-26T18:18:59.881Z,101400.19
2023-04-26T18:21:27.939Z,101402.22
2023-04-26T18:23:56.277Z,101414.94
2023-04-26T18:26:25.632Z,101409.63
2023-04-26T18:28:54.902Z,101413.47
2023-04-26T18:31:23.187Z,101413.56
2023-04-26T18:33:51.367Z,101412.16
2023-04-26T18:36:20.868Z,101415.16
2023-04-26T18:38:48.937Z,101423.47
2023-04-26T18:41:17.881Z,101416.66
2023-04-26T18:43:45.962Z,101424.22
2023-04-26T18:46:14.087Z,101426.44
2023-04-26T18:48:42.218Z,101425.06
2023-04-26T18:51:10.312Z,101419.16
2023-04-26T18:53:39.778Z,101418.56
2023-04-26T18:56:07.945Z,101432.16
2023-04-26T18:58:36.742Z,101426.91
2023-04-26T19:01:04.938Z,101422.53
2023-04-26T19:03:33.237Z,101420.72
2023-04-26T19:06:01.423Z,101431.50
2023-04-26T19:08:29.490Z,101432.50
2023-04-26T19:10:59.212Z,101443.16
2023-04-26T19:13:27.378Z,101446.72
2023-04-26T19:15:55.473Z,101447.66
2023-04-26T19:18:23.613Z,101446.78
2023-04-26T19:20:51.681Z,101445.03
2023-04-26T19:23:20.062Z,101450.41
2023-04-26T19:25:48.511Z,101446.78
2023-04-26T19:28:17.965Z,101465.41
2023-04-26T19:30:46.024Z,101463.69
2023-04-26T19:33:14.116Z,101468.53
2023-04-26T19:35:42.184Z,101462.97
2023-04-26T19:38:10.455Z,101469.47
2023-04-26T19:40:38.940Z,101469.00
2023-04-26T19:43:07.153Z,101463.72
2023-04-26T19:45:37.902Z,101468.38
2023-04-26T19:48:06.195Z,101470.31
2023-04-26T19:50:34.318Z,101468.59
2023-04-26T19:53:02.431Z,101462.53
2023-04-26T19:55:30.722Z,101460.78
2023-04-26T19:57:59.410Z,101459.03
2023-04-26T20:00:30.181Z,101456.38
2023-04-26T20:03:00.032Z,101463.56
2023-04-26T20:05:28.152Z,101463.63
2023-04-26T20:07:56.642Z,101461.88
2023-04-26T20:10:24.884Z,101464.59
2023-04-26T20:12:53.175Z,101460.22
2023-04-26T20:15:21.318Z,101458.53
2023-04-26T20:17:49.437Z,101461.22
2023-04-26T20:20:19.127Z,101458.47
2023-04-26T20:22:47.197Z,101464.75
2023-04-26T20:25:15.504Z,101470.16
2023-04-26T20:27:43.585Z,101465.75
2023-04-26T20:30:12.519Z,101462.31
2023-04-26T20:32:40.627Z,101465.94
2023-04-26T20:35:09.427Z,101470.47
2023-04-26T20:37:38.913Z,101472.44
2023-04-26T20:40:08.393Z,101474.38
2023-04-26T20:42:36.501Z,101480.66
2023-04-26T20:45:05.121Z,101478.00
2023-04-26T20:47:33.220Z,101476.19
2023-04-26T20:50:01.287Z,101479.75
2023-04-26T20:52:29.359Z,101485.09
2023-04-26T20:54:58.789Z,101492.06
2023-04-26T20:57:26.967Z,101482.13
2023-04-26T20:59:55.034Z,101478.41
2023-04-26T21:02:23.240Z,101487.28
2023-04-26T21:04:51.522Z,101484.59
2023-04-26T21:07:19.595Z,101480.19
2023-04-26T21:09:47.948Z,101487.41
2023-04-26T21:12:17.412Z,101484.78
2023-04-26T21:14:47.831Z,101486.72
2023-04-26T21:17:16.031Z,101491.31
2023-04-26T21:19:44.562Z,101490.63
2023-04-26T21:22:12.693Z,101482.81
2023-04-26T21:24:40.764Z,101483.84
2023-04-26T21:27:09.447Z,101494.75
2023-04-26T21:29:39.097Z,101493.06
2023-04-26T21:32:07.176Z,101494.97
2023-04-26T21:34:36.513Z,101493.38
2023-04-26T21:37:04.747Z,101495.31
2023-04-26T21:39:32.829Z,101491.91
2023-04-26T21:42:03.386Z,101493.84
2023-04-26T21:44:31.497Z,101497.53
2023-04-26T21:47:01.080Z,101499.50
2023-04-26T21:49:29.276Z,101503.28
2023-04-26T21:51:57.370Z,101501.75
2023-04-26T21:54:25.581Z,101493.03
2023-04-26T21:56:53.638Z,101503.91
2023-04-26T21:59:21.718Z,101504.91
2023-04-26T22:01:49.791Z,101502.41
2023-04-26T22:04:19.452Z,101502.50
2023-04-26T22:06:47.655Z,101500.75
2023-04-26T22:09:15.858Z,101500.91
2023-04-26T22:11:44.245Z,101497.44
2023-04-26T22:14:12.324Z,101507.25
2023-04-26T22:16:40.430Z,101504.63
2023-04-26T22:19:08.885Z,101504.69
2023-04-26T22:21:38.659Z,101501.19
2023-04-26T22:24:07.426Z,101504.88
2023-04-26T22:26:36.084Z,101507.72
2023-04-26T22:29:04.173Z,101515.81
2023-04-26T22:31:32.244Z,101518.53
2023-04-26T22:34:00.316Z,101517.66
2023-04-26T22:36:28.387Z,101515.91
2023-04-26T22:38:59.005Z,101522.13
2023-04-26T22:41:27.066Z,101519.38
2023-04-26T22:43:55.185Z,101516.59
2023-04-26T22:46:23.406Z,101519.22
2023-04-26T22:48:51.636Z,101516.50
2023-04-26T22:51:19.749Z,101528.09
2023-04-26T22:53:47.799Z,101527.25
2023-04-26T22:56:17.606Z,101524.66
2023-04-26T22:58:45.914Z,101523.00
2023-04-26T23:01:14.019Z,101530.19
2023-04-26T23:03:42.261Z,101534.66
2023-04-26T23:06:10.380Z,101535.63
2023-04-26T23:08:38.442Z,101537.44
2023-04-26T23:11:08.672Z,101543.78
2023-04-26T23:13:38.228Z,101538.53
2023-04-26T23:16:07.066Z,101535.94
2023-04-26T23:18:35.274Z,101537.78
2023-04-26T23:21:03.396Z,101545.03
2023-04-26T23:23:31.616Z,101540.66
2023-04-26T23:25:59.662Z,101545.19
2023-04-26T23:28:27.717Z,101544.38
2023-04-26T23:30:57.207Z,101541.84
2023-04-26T23:33:25.553Z,101544.59
2023-04-26T23:35:55.952Z,101545.56
2023-04-26T23:38:24.076Z,101551.03
2023-04-26T23:40:52.152Z,101544.03
2023-04-26T23:43:20.223Z,101553.88
2023-04-26T23:45:48.297Z,101554.81
2023-04-26T23:48:19.723Z,101554.00
2023-04-26T23:50:47.790Z,101560.25
2023-04-26T23:53:16.158Z,101563.81
2023-04-26T23:55:44.245Z,101566.53
2023-04-26T23:58:12.299Z,101560.38
